Accueil
METAR-TAF:

METAR-TAF

Aéroports :

Frontone, Italie

latitude: 43-31N, longitude: 012-44E, altitude: 570 m

Observation

Le bulletin a été fait il y a 20 minutes, à 07:55 UTC
Vent calme
Température 5°C
Humidité 100%
Pression 1011 hPa
Visibilité 10 km ou plus
Quelques nuages à une hauteur de 2700 ft

METAR: LIVF 210755Z 00000KT 9999 FEW027 05/05 Q1011 RMK FEW MON S W GEN INC NC VAL NW MAR CLD DIM ELEV VIS MIN 9999

Heure: 09:15 (08:15 UTC)


TAF: absent

Observations et prévisions météorologiques de plus de 4000 aéroports (messages METAR et TAF).

Les stations disponibles sont représentées par des disques jaunes et rouges sur la carte.

Passer la souris dessus pour voir le nom de la station.

Cliquer dessus pour voir les observations et prévisions météorologiques.

Pour changer de carte: cliquez sur les boutons verts avec une croix noire pour zoomer, sur le bouton vert avec un tiret pour effectuer un zoom arrière, ou sur les flèches vertes pour les cartes adjacentes.


METAR-TAF: